createdAt,value
2018-12-30T00:01:38.421Z,6.22
2018-12-30T00:04:07.924Z,9.85
2018-12-30T00:06:37.529Z,5.58
2018-12-30T00:09:07.715Z,9.23
2018-12-30T00:11:37.435Z,6.75
2018-12-30T00:14:06.852Z,7.08
2018-12-30T00:16:36.254Z,9.75
2018-12-30T00:19:24.754Z,7.08
2018-12-30T00:21:54.258Z,7.55
2018-12-30T00:24:23.662Z,8.58
2018-12-30T00:26:53.066Z,7.17
2018-12-30T00:29:22.479Z,5.28
2018-12-30T00:31:51.878Z,9.70
2018-12-30T00:36:56.432Z,7.00
2018-12-30T00:39:26.053Z,6.97
2018-12-30T00:41:55.458Z,3.80
2018-12-30T00:44:24.866Z,6.35
2018-12-30T00:46:54.270Z,16.25
2018-12-30T00:49:23.671Z,5.25
2018-12-30T00:51:53.122Z,8.20
2018-12-30T00:54:22.538Z,14.07
2018-12-30T00:56:51.934Z,6.80
2018-12-30T00:59:21.346Z,9.88
2018-12-30T01:01:50.759Z,6.90
2018-12-30T01:04:20.228Z,16.80
2018-12-30T01:06:49.609Z,11.22
2018-12-30T01:09:19.143Z,8.50
2018-12-30T01:11:48.554Z,11.93
2018-12-30T01:14:17.990Z,8.88
2018-12-30T01:16:47.802Z,5.67
2018-12-30T01:19:17.222Z,10.70
2018-12-30T01:21:46.638Z,9.58
2018-12-30T01:24:16.083Z,6.67
2018-12-30T01:26:45.450Z,9.18
2018-12-30T01:29:14.872Z,8.60
2018-12-30T01:31:44.274Z,8.45
2018-12-30T01:34:13.687Z,6.95
2018-12-30T01:36:43.116Z,8.25
2018-12-30T01:39:12.518Z,19.35
2018-12-30T01:41:41.927Z,8.70
2018-12-30T01:44:11.350Z,12.18
2018-12-30T01:46:40.771Z,9.73
2018-12-30T01:49:10.171Z,8.93
2018-12-30T01:51:39.578Z,10.10
2018-12-30T01:54:08.995Z,11.90
2018-12-30T01:56:38.543Z,13.78
2018-12-30T01:59:07.959Z,8.53
2018-12-30T02:01:37.437Z,12.45
2018-12-30T02:04:06.782Z,8.85
2018-12-30T02:06:36.194Z,10.15
2018-12-30T02:09:07.262Z,15.38
2018-12-30T02:11:55.730Z,7.85
2018-12-30T02:17:30.206Z,9.40
2018-12-30T02:19:59.607Z,8.15
2018-12-30T02:22:29.075Z,11.95
2018-12-30T02:25:17.566Z,9.80
2018-12-30T02:43:13.288Z,7.28
2018-12-30T02:46:01.734Z,8.20
2018-12-30T02:51:25.562Z,9.33
2018-12-30T05:16:13.551Z,6.17
2018-12-30T05:46:30.841Z,9.23
2018-12-30T05:49:19.236Z,7.95
2018-12-30T06:25:46.015Z,6.42
2018-12-30T06:28:34.415Z,6.97
2018-12-30T06:34:24.579Z,9.08
2018-12-30T06:36:53.989Z,8.45
2018-12-30T06:39:42.463Z,6.60
2018-12-30T06:42:30.879Z,4.87
2018-12-30T06:51:25.859Z,6.12
2018-12-30T06:53:55.192Z,3.95
2018-12-30T06:56:43.731Z,4.83
2018-12-30T06:59:13.118Z,5.72
2018-12-30T07:01:42.455Z,4.75
2018-12-30T07:04:11.792Z,7.12
2018-12-30T07:06:41.187Z,5.95
2018-12-30T07:09:29.671Z,4.90
2018-12-30T07:11:58.999Z,5.47
2018-12-30T07:14:28.436Z,3.50
2018-12-30T07:16:57.974Z,9.88
2018-12-30T07:19:27.343Z,7.03
2018-12-30T07:21:56.691Z,3.62
2018-12-30T07:24:26.015Z,6.17
2018-12-30T07:26:55.436Z,4.90
2018-12-30T07:29:24.781Z,3.95
2018-12-30T07:31:54.191Z,3.10
2018-12-30T07:34:42.587Z,6.17
2018-12-30T07:37:11.974Z,5.37
2018-12-30T07:39:41.394Z,6.00
2018-12-30T07:42:10.722Z,5.12
2018-12-30T07:44:40.306Z,6.72
2018-12-30T07:47:28.702Z,7.30
2018-12-30T07:49:58.326Z,4.72
2018-12-30T07:52:27.675Z,8.33
2018-12-30T07:54:57.002Z,8.73
2018-12-30T07:57:26.427Z,5.97
2018-12-30T08:00:14.805Z,7.37
2018-12-30T08:27:26.163Z,3.98
2018-12-30T08:30:14.555Z,4.37
2018-12-30T08:33:02.931Z,5.37
2018-12-30T08:38:37.411Z,4.12
2018-12-30T08:41:25.951Z,6.53
2018-12-30T08:44:13.663Z,3.37
2018-12-30T08:46:43.078Z,4.90
2018-12-30T08:49:31.452Z,4.10
2018-12-30T08:52:01.018Z,4.78
2018-12-30T08:54:30.414Z,4.37
2018-12-30T08:57:19.012Z,3.67
2018-12-30T09:00:07.503Z,5.25
2018-12-30T09:02:55.981Z,3.50
2018-12-30T09:05:25.375Z,3.27
2018-12-30T09:08:13.846Z,18.80
2018-12-30T09:10:43.276Z,3.17
2018-12-30T09:13:31.851Z,3.12
2018-12-30T09:16:01.182Z,4.30
2018-12-30T09:18:30.631Z,4.55
2018-12-30T09:20:59.962Z,5.10
2018-12-30T09:23:48.395Z,4.55
2018-12-30T09:26:17.719Z,3.72
2018-12-30T09:28:47.038Z,2.77
2018-12-30T09:31:16.379Z,3.12
2018-12-30T09:33:45.719Z,2.72
2018-12-30T09:36:15.046Z,5.62
2018-12-30T09:38:44.370Z,4.78
2018-12-30T09:41:13.694Z,2.90
2018-12-30T09:43:43.018Z,7.12
2018-12-30T09:46:12.355Z,2.17
2018-12-30T09:48:41.683Z,2.65
2018-12-30T09:51:11.027Z,2.60
2018-12-30T09:53:45.118Z,4.92
2018-12-30T09:56:30.435Z,3.50
2018-12-30T09:58:59.753Z,2.70
2018-12-30T10:01:29.108Z,4.50
2018-12-30T10:03:58.508Z,2.08
2018-12-30T10:06:27.851Z,3.65
2018-12-30T10:08:57.198Z,4.72
2018-12-30T10:11:26.536Z,2.00
2018-12-30T10:13:55.887Z,2.22
2018-12-30T10:16:25.230Z,1.75
2018-12-30T10:18:54.578Z,1.82
2018-12-30T10:21:23.913Z,4.00
2018-12-30T10:23:53.310Z,5.87
2018-12-30T10:26:22.652Z,2.22
2018-12-30T10:28:51.995Z,3.20
2018-12-30T10:31:21.328Z,2.65
2018-12-30T10:33:50.667Z,2.20
2018-12-30T10:36:19.986Z,5.30
2018-12-30T10:38:49.318Z,2.10
2018-12-30T10:41:18.651Z,4.03
2018-12-30T10:43:48.074Z,1.85
2018-12-30T10:46:17.488Z,1.67
2018-12-30T10:48:46.861Z,3.72
2018-12-30T10:51:16.224Z,2.12
2018-12-30T10:53:45.624Z,2.80
2018-12-30T10:56:14.949Z,3.83
2018-12-30T10:58:44.398Z,2.55
2018-12-30T11:01:13.718Z,1.80
2018-12-30T11:03:43.072Z,2.80
2018-12-30T11:06:12.402Z,1.75
2018-12-30T11:08:41.738Z,3.40
2018-12-30T11:11:11.090Z,1.75
2018-12-30T11:13:40.437Z,4.20
2018-12-30T11:16:09.825Z,1.57
2018-12-30T11:18:39.162Z,2.02
2018-12-30T11:21:08.515Z,5.20
2018-12-30T11:23:37.919Z,2.25
2018-12-30T11:26:07.266Z,2.72
2018-12-30T11:28:36.614Z,1.98
2018-12-30T11:31:24.987Z,6.12
2018-12-30T11:34:13.363Z,2.15
2018-12-30T11:36:57.846Z,1.40
2018-12-30T11:39:27.166Z,1.45
2018-12-30T11:42:15.682Z,2.95
2018-12-30T11:45:04.474Z,1.10
2018-12-30T11:47:49.051Z,4.60
2018-12-30T11:59:46.935Z,1.20
2018-12-30T12:02:35.306Z,1.50
2018-12-30T12:05:04.746Z,1.32
2018-12-30T12:07:53.135Z,3.85
2018-12-30T12:19:38.019Z,1.27
2018-12-30T12:37:33.850Z,1.47
2018-12-30T12:40:03.206Z,1.50
2018-12-30T12:42:32.535Z,1.95
2018-12-30T12:45:01.871Z,15.98
2018-12-30T12:47:31.389Z,12.90
2018-12-30T12:50:00.798Z,7.28
2018-12-30T12:52:30.173Z,5.90
2018-12-30T12:54:59.582Z,2.35
2018-12-30T12:57:28.931Z,2.42
2018-12-30T12:59:58.349Z,1.40
2018-12-30T13:02:27.680Z,2.15
2018-12-30T13:04:56.981Z,1.87
2018-12-30T13:07:26.306Z,9.40
2018-12-30T13:09:55.651Z,1.55
2018-12-30T13:12:25.055Z,2.67
2018-12-30T13:14:54.393Z,8.68
2018-12-30T13:17:23.716Z,1.52
2018-12-30T13:19:53.048Z,0.93
2018-12-30T13:22:22.430Z,1.52
2018-12-30T13:24:51.763Z,1.40
2018-12-30T13:27:21.095Z,2.67
2018-12-30T13:29:50.535Z,1.40
2018-12-30T13:32:19.864Z,3.90
2018-12-30T13:35:08.306Z,2.55
2018-12-30T13:37:37.641Z,1.15
2018-12-30T13:40:07.144Z,1.42
2018-12-30T13:42:36.577Z,1.50
2018-12-30T13:45:06.250Z,1.77
2018-12-30T13:47:35.570Z,1.55
2018-12-30T13:50:05.603Z,1.00
2018-12-30T13:52:34.978Z,1.90
2018-12-30T13:55:04.678Z,2.27
2018-12-30T13:57:34.082Z,1.20
2018-12-30T14:00:03.637Z,1.20
2018-12-30T14:02:33.031Z,1.30
2018-12-30T14:05:02.359Z,1.37
2018-12-30T14:07:31.738Z,1.07
2018-12-30T14:10:01.071Z,1.67
2018-12-30T14:12:30.443Z,3.22
2018-12-30T14:14:59.787Z,1.27
2018-12-30T14:17:29.222Z,1.45
2018-12-30T14:19:58.599Z,1.72
2018-12-30T14:22:28.010Z,1.17
2018-12-30T14:24:57.417Z,1.17
2018-12-30T14:27:45.879Z,2.70
2018-12-30T14:30:15.207Z,1.27
2018-12-30T14:32:44.529Z,2.37
2018-12-30T14:35:13.928Z,1.32
2018-12-30T14:38:02.377Z,3.55
2018-12-30T14:40:31.817Z,1.15
2018-12-30T14:43:20.266Z,1.47
2018-12-30T14:49:08.250Z,2.40
2018-12-30T14:51:56.671Z,1.70
2018-12-30T14:57:30.862Z,2.00
2018-12-30T15:00:19.231Z,1.70
2018-12-30T15:03:07.667Z,1.05
2018-12-30T15:05:37.022Z,2.67
2018-12-30T15:08:06.346Z,2.17
2018-12-30T15:10:54.791Z,1.85
2018-12-30T15:13:24.173Z,4.95
2018-12-30T15:16:12.554Z,3.45
2018-12-30T15:18:41.884Z,1.90
2018-12-30T15:21:30.367Z,2.17
2018-12-30T15:23:59.731Z,1.80
2018-12-30T15:26:48.136Z,2.02
2018-12-30T15:42:08.306Z,1.67
2018-12-30T15:44:37.695Z,1.70
2018-12-30T15:47:26.131Z,1.60
2018-12-30T15:49:55.740Z,1.98
2018-12-30T15:52:25.186Z,2.35
2018-12-30T15:54:54.626Z,3.72
2018-12-30T15:57:43.072Z,1.72
2018-12-30T16:00:31.606Z,3.00
2018-12-30T16:06:08.523Z,2.02
2018-12-30T16:33:33.232Z,1.60
2018-12-30T16:36:02.624Z,5.35
2018-12-30T16:38:51.014Z,2.10
2018-12-30T16:41:39.420Z,3.62
2018-12-30T16:44:08.782Z,2.50
2018-12-30T16:46:57.170Z,1.40
2018-12-30T17:01:47.254Z,1.47
2018-12-30T17:04:16.662Z,4.40
2018-12-30T17:07:05.062Z,1.47
2018-12-30T17:09:53.544Z,2.90
2018-12-30T17:40:09.320Z,2.98
2018-12-30T17:42:57.846Z,1.25
2018-12-30T17:45:46.231Z,3.83
2018-12-30T17:51:20.983Z,2.17
2018-12-30T17:54:15.152Z,3.08
2018-12-30T18:05:56.024Z,1.27
2018-12-30T18:08:44.407Z,11.60
2018-12-30T18:11:32.831Z,5.58
2018-12-30T18:20:12.330Z,10.65
2018-12-30T18:22:41.656Z,8.80
2018-12-30T18:25:10.994Z,5.72
2018-12-30T18:27:40.395Z,4.90
2018-12-30T18:30:09.806Z,24.80
2018-12-30T18:32:39.160Z,36.25
2018-12-30T18:35:08.658Z,15.55
2018-12-30T18:37:37.993Z,32.93
2018-12-30T18:40:07.715Z,53.90
2018-12-30T18:42:56.107Z,68.75
2018-12-30T18:45:44.480Z,12.33
2018-12-30T18:48:13.831Z,5.42
2018-12-30T18:51:02.201Z,2.40
2018-12-30T19:02:46.874Z,22.50
2018-12-30T19:05:35.283Z,11.05
2018-12-30T19:14:15.130Z,6.22
2018-12-30T19:16:44.458Z,2.35
2018-12-30T19:19:13.903Z,6.40
2018-12-30T19:21:43.232Z,11.68
2018-12-30T19:24:12.642Z,3.92
2018-12-30T19:26:41.981Z,4.97
2018-12-30T19:29:11.307Z,2.55
2018-12-30T19:31:40.659Z,1.77
2018-12-30T19:34:10.007Z,5.10
2018-12-30T19:36:39.338Z,1.70
2018-12-30T19:39:08.671Z,1.98
2018-12-30T19:41:37.998Z,3.30
2018-12-30T19:44:07.403Z,2.30
2018-12-30T19:46:36.833Z,3.77
2018-12-30T19:49:06.170Z,1.57
2018-12-30T19:51:54.550Z,1.98
2018-12-30T19:54:23.951Z,5.55
2018-12-30T19:57:12.395Z,11.40
2018-12-30T20:03:00.659Z,20.35
2018-12-30T20:05:29.986Z,13.00
2018-12-30T20:08:18.495Z,4.08
2018-12-30T20:11:06.934Z,2.20
2018-12-30T20:13:36.311Z,10.98
2018-12-30T20:16:05.698Z,2.95
2018-12-30T20:18:35.027Z,4.28
2018-12-30T20:21:04.430Z,11.53
2018-12-30T20:23:33.753Z,1.57
2018-12-30T20:32:13.821Z,2.12
2018-12-30T20:34:43.148Z,1.62
2018-12-30T20:37:12.570Z,5.20
2018-12-30T20:39:41.898Z,6.15
2018-12-30T20:42:11.229Z,3.75
2018-12-30T20:44:59.678Z,1.35
2018-12-30T20:47:48.063Z,3.37
2018-12-30T20:53:22.516Z,0.90
2018-12-30T20:56:10.947Z,5.25
2018-12-30T20:58:40.359Z,1.20
2018-12-30T21:01:28.735Z,1.90
2018-12-30T22:02:37.093Z,2.35
2018-12-30T22:05:25.502Z,2.35
2018-12-30T22:11:00.250Z,2.42
2018-12-30T22:13:48.712Z,2.10
2018-12-30T22:16:37.231Z,1.45
2018-12-30T22:59:15.200Z,1.27
2018-12-30T23:02:03.886Z,0.90
2018-12-30T23:10:44.458Z,1.35
2018-12-30T23:13:32.869Z,1.75
2018-12-30T23:43:18.606Z,1.12
2018-12-30T23:45:47.935Z,0.90
2018-12-30T23:48:36.311Z,1.35
2018-12-30T23:53:49.300Z,0.70
2018-12-30T23:56:18.699Z,0.57
2018-12-30T23:59:07.108Z,0.78
